createdAt,value
2022-10-03T00:00:14.453Z,10.14
2022-10-03T00:03:22.207Z,10.12
2022-10-03T00:06:03.233Z,10.06
2022-10-03T00:08:58.212Z,10.04
2022-10-03T00:11:37.978Z,10.01
2022-10-03T00:14:14.253Z,9.98
2022-10-03T00:16:49.272Z,9.95
2022-10-03T00:19:27.151Z,9.92
2022-10-03T00:22:07.988Z,9.92
2022-10-03T00:24:49.615Z,9.90
2022-10-03T00:27:28.372Z,9.90
2022-10-03T00:30:13.092Z,9.88
2022-10-03T00:33:08.549Z,9.87
2022-10-03T00:35:53.986Z,9.84
2022-10-03T00:38:45.362Z,9.83
2022-10-03T00:41:33.160Z,9.81
2022-10-03T00:44:45.605Z,9.82
2022-10-03T00:47:58.127Z,9.80
2022-10-03T00:50:52.006Z,9.79
2022-10-03T00:53:46.233Z,9.81
2022-10-03T00:56:50.694Z,9.77
2022-10-03T00:59:33.981Z,9.78
2022-10-03T01:02:25.970Z,9.77
2022-10-03T01:05:01.808Z,9.76
2022-10-03T01:07:57.304Z,9.77
2022-10-03T01:10:33.057Z,9.77
2022-10-03T01:13:22.270Z,9.78
2022-10-03T01:15:56.154Z,9.77
2022-10-03T01:18:37.656Z,9.79
2022-10-03T01:21:15.729Z,9.79
2022-10-03T01:24:19.947Z,9.79
2022-10-03T01:26:55.835Z,9.79
2022-10-03T01:29:56.349Z,9.80
2022-10-03T01:32:30.719Z,9.79
2022-10-03T01:35:10.963Z,9.79
2022-10-03T01:37:49.107Z,9.80
2022-10-03T01:40:27.254Z,9.79
2022-10-03T01:43:04.186Z,9.80
2022-10-03T01:45:47.613Z,9.81
2022-10-03T01:48:23.242Z,9.83
2022-10-03T01:51:00.887Z,9.85
2022-10-03T01:53:40.732Z,9.87
2022-10-03T01:56:15.943Z,9.89
2022-10-03T01:58:56.739Z,9.92
2022-10-03T02:01:35.602Z,9.94
2022-10-03T02:04:13.497Z,9.97
2022-10-03T02:06:50.383Z,10.00
2022-10-03T02:09:28.762Z,10.02
2022-10-03T02:12:28.913Z,10.05
2022-10-03T02:15:01.171Z,10.08
2022-10-03T02:17:47.900Z,10.10
2022-10-03T02:20:26.325Z,10.12
2022-10-03T02:22:56.922Z,10.14
2022-10-03T02:25:42.123Z,10.16
2022-10-03T02:28:30.536Z,10.17
2022-10-03T02:31:42.867Z,10.20
2022-10-03T02:34:26.589Z,10.22
2022-10-03T02:37:33.204Z,10.23
2022-10-03T02:40:32.937Z,10.27
2022-10-03T02:43:35.470Z,10.27
2022-10-03T02:46:37.876Z,10.28
2022-10-03T02:49:41.216Z,10.28
2022-10-03T02:52:36.269Z,10.28
2022-10-03T02:55:25.318Z,10.26
2022-10-03T02:58:18.861Z,10.27
2022-10-03T03:01:16.607Z,10.23
2022-10-03T03:04:10.030Z,10.23
2022-10-03T03:07:01.689Z,10.20
2022-10-03T03:09:58.206Z,10.19
2022-10-03T03:12:56.737Z,10.17
2022-10-03T03:16:04.635Z,10.16
2022-10-03T03:18:37.762Z,10.12
2022-10-03T03:21:24.806Z,10.09
2022-10-03T03:24:13.267Z,10.09
2022-10-03T03:27:13.448Z,10.05
2022-10-03T03:29:55.811Z,10.04
2022-10-03T03:32:35.082Z,10.03
2022-10-03T03:35:16.089Z,10.04
2022-10-03T03:37:52.339Z,10.00
2022-10-03T03:40:52.500Z,10.00
2022-10-03T03:43:59.478Z,9.98
2022-10-03T03:46:47.956Z,9.97
2022-10-03T03:49:42.101Z,9.96
2022-10-03T03:52:35.204Z,9.94
2022-10-03T03:55:18.323Z,9.94
2022-10-03T03:58:05.737Z,9.94
2022-10-03T04:00:50.849Z,9.92
2022-10-03T04:03:32.123Z,9.92
2022-10-03T04:06:25.660Z,9.90
2022-10-03T04:09:30.928Z,9.91
2022-10-03T04:12:09.898Z,9.90
2022-10-03T04:15:05.928Z,9.90
2022-10-03T04:18:05.516Z,9.88
2022-10-03T04:20:55.016Z,9.85
2022-10-03T04:23:40.037Z,9.85
2022-10-03T04:26:23.234Z,9.84
2022-10-03T04:29:19.341Z,9.83
2022-10-03T04:31:55.694Z,9.81
2022-10-03T04:34:39.323Z,9.81
2022-10-03T04:37:19.240Z,9.81
2022-10-03T04:39:55.646Z,9.81
2022-10-03T04:42:39.616Z,9.82
2022-10-03T04:45:36.978Z,9.82
2022-10-03T04:48:17.806Z,9.84
2022-10-03T04:50:58.335Z,9.84
2022-10-03T04:53:42.414Z,9.83
2022-10-03T04:56:32.763Z,9.84
2022-10-03T04:59:10.948Z,9.84
2022-10-03T05:01:46.434Z,9.85
2022-10-03T05:04:26.613Z,9.86
2022-10-03T05:07:06.274Z,9.86
2022-10-03T05:09:45.597Z,9.87
2022-10-03T05:12:18.807Z,9.86
2022-10-03T05:15:00.232Z,9.85
2022-10-03T05:17:38.376Z,9.87
2022-10-03T05:20:31.010Z,9.87
2022-10-03T05:23:15.132Z,9.88
2022-10-03T05:26:16.337Z,9.90
2022-10-03T05:28:55.144Z,9.90
2022-10-03T05:31:39.044Z,9.92
2022-10-03T05:34:18.496Z,9.93
2022-10-03T05:37:02.644Z,9.92
2022-10-03T05:39:42.361Z,9.95
2022-10-03T05:42:35.515Z,9.95
2022-10-03T05:45:07.477Z,9.96
2022-10-03T05:47:49.283Z,9.96
2022-10-03T05:50:36.248Z,9.96
2022-10-03T05:53:17.877Z,9.98
2022-10-03T05:56:00.309Z,9.98
2022-10-03T05:58:54.330Z,9.99
2022-10-03T06:01:59.266Z,10.00
2022-10-03T06:04:59.071Z,10.00
2022-10-03T06:07:31.427Z,10.01
2022-10-03T06:10:38.079Z,10.00
2022-10-03T06:13:15.545Z,10.01
2022-10-03T06:15:58.870Z,10.03
2022-10-03T06:19:06.373Z,10.06
2022-10-03T06:22:13.418Z,10.09
2022-10-03T06:25:24.666Z,10.12
2022-10-03T06:28:38.897Z,10.15
2022-10-03T06:32:06.762Z,10.17
2022-10-03T06:34:58.089Z,10.17
2022-10-03T06:38:12.669Z,10.18
2022-10-03T06:41:37.531Z,10.21
2022-10-03T06:44:28.002Z,10.22
2022-10-03T06:47:27.759Z,10.25
2022-10-03T06:50:39.194Z,10.30
2022-10-03T06:53:35.799Z,10.33
2022-10-03T06:56:46.383Z,10.36
2022-10-03T06:59:39.475Z,10.39
2022-10-03T07:02:42.093Z,10.43
2022-10-03T07:05:40.713Z,10.47
2022-10-03T07:08:36.584Z,10.52
2022-10-03T07:11:29.339Z,10.57
2022-10-03T07:14:38.494Z,10.62
2022-10-03T07:17:45.635Z,10.68
2022-10-03T07:20:36.693Z,10.72
2022-10-03T07:24:03.430Z,10.76
2022-10-03T07:26:57.908Z,10.80
2022-10-03T07:29:39.822Z,10.87
2022-10-03T07:32:33.063Z,10.92
2022-10-03T07:35:51.508Z,10.97
2022-10-03T07:38:59.046Z,11.01
2022-10-03T07:41:51.569Z,11.07
2022-10-03T07:45:06.904Z,11.14
2022-10-03T07:47:59.599Z,11.19
2022-10-03T07:50:51.529Z,11.26
2022-10-03T07:53:53.752Z,11.28
2022-10-03T07:56:51.992Z,11.32
2022-10-03T08:00:00.830Z,11.38
2022-10-03T08:02:56.902Z,11.48
2022-10-03T08:05:38.297Z,11.53
2022-10-03T08:08:32.029Z,11.54
2022-10-03T08:11:31.485Z,11.60
2022-10-03T08:14:18.010Z,11.67
2022-10-03T08:17:21.228Z,11.74
2022-10-03T08:20:13.930Z,11.77
2022-10-03T08:22:53.759Z,11.88
2022-10-03T08:25:30.974Z,11.97
2022-10-03T08:28:25.119Z,12.03
2022-10-03T08:31:16.726Z,12.13
2022-10-03T08:34:04.971Z,12.25
2022-10-03T08:36:50.703Z,12.33
2022-10-03T08:39:31.443Z,12.47
2022-10-03T08:42:36.439Z,12.65
2022-10-03T08:46:00.004Z,12.77
2022-10-03T08:48:45.447Z,12.91
2022-10-03T08:51:46.893Z,13.03
2022-10-03T08:54:50.957Z,13.16
2022-10-03T08:57:32.344Z,13.26
2022-10-03T09:00:15.356Z,13.35
2022-10-03T09:03:32.659Z,13.50
2022-10-03T09:06:31.292Z,13.58
2022-10-03T09:09:51.606Z,13.65
2022-10-03T09:12:42.852Z,13.82
2022-10-03T09:15:42.023Z,13.94
2022-10-03T09:18:41.671Z,13.93
2022-10-03T09:21:49.633Z,13.92
2022-10-03T09:24:37.964Z,14.05
2022-10-03T09:27:31.584Z,14.08
2022-10-03T09:30:16.266Z,13.99
2022-10-03T09:33:15.282Z,13.94
2022-10-03T09:36:22.181Z,13.93
2022-10-03T09:39:02.513Z,14.12
2022-10-03T09:42:10.541Z,14.29
2022-10-03T09:44:55.436Z,14.27
2022-10-03T09:47:54.353Z,14.18
2022-10-03T09:51:01.501Z,14.31
2022-10-03T09:53:53.222Z,14.42
2022-10-03T09:57:04.557Z,14.53
2022-10-03T09:59:53.270Z,14.60
2022-10-03T10:02:49.407Z,14.62
2022-10-03T10:05:57.351Z,14.70
2022-10-03T10:09:06.525Z,14.96
2022-10-03T10:12:02.614Z,15.15
2022-10-03T10:14:50.705Z,15.20
2022-10-03T10:17:57.345Z,15.18
2022-10-03T10:20:39.872Z,15.27
2022-10-03T10:23:25.752Z,15.50
2022-10-03T10:26:33.396Z,15.60
2022-10-03T10:29:36.729Z,15.59
2022-10-03T10:32:55.881Z,15.67
2022-10-03T10:35:52.963Z,15.57
2022-10-03T10:38:54.568Z,15.45
2022-10-03T10:42:02.803Z,15.34
2022-10-03T10:45:22.682Z,15.26
2022-10-03T10:48:28.609Z,15.29
2022-10-03T10:51:40.506Z,15.43
2022-10-03T10:54:59.621Z,15.51
2022-10-03T10:57:52.321Z,15.52
2022-10-03T11:00:26.463Z,15.43
2022-10-03T11:03:31.923Z,15.37
2022-10-03T11:06:53.953Z,15.28
2022-10-03T11:09:53.697Z,15.20
2022-10-03T11:13:07.292Z,15.19
2022-10-03T11:16:18.072Z,15.23
2022-10-03T11:19:42.450Z,15.27
2022-10-03T11:22:52.438Z,15.33
2022-10-03T11:25:55.302Z,15.41
2022-10-03T11:29:11.715Z,15.49
2022-10-03T11:32:29.553Z,15.63
2022-10-03T11:35:43.166Z,15.69
2022-10-03T11:38:19.077Z,15.73
2022-10-03T11:41:00.941Z,15.77
2022-10-03T11:44:02.048Z,15.76
2022-10-03T11:47:13.844Z,15.70
2022-10-03T11:50:14.126Z,15.72
2022-10-03T11:52:53.938Z,15.76
2022-10-03T11:55:31.619Z,16.01
2022-10-03T11:58:14.964Z,16.07
2022-10-03T12:00:47.175Z,16.08
2022-10-03T12:03:23.778Z,16.24
2022-10-03T12:06:18.665Z,16.31
2022-10-03T12:09:00.174Z,16.26
2022-10-03T12:11:31.149Z,16.23
2022-10-03T12:14:23.571Z,16.44
2022-10-03T12:17:05.861Z,16.52
2022-10-03T12:19:44.432Z,16.51
2022-10-03T12:22:28.574Z,16.60
2022-10-03T12:25:03.506Z,16.90
2022-10-03T12:27:44.133Z,17.21
2022-10-03T12:30:17.057Z,17.47
2022-10-03T12:32:58.900Z,17.63
2022-10-03T12:35:42.595Z,17.87
2022-10-03T12:38:26.869Z,18.16
2022-10-03T12:41:07.563Z,18.12
2022-10-03T12:43:46.443Z,18.17
2022-10-03T12:46:19.642Z,18.42
2022-10-03T12:48:56.257Z,18.60
2022-10-03T12:51:39.068Z,18.53
2022-10-03T12:54:18.365Z,18.38
2022-10-03T12:56:50.352Z,18.32
2022-10-03T12:59:31.614Z,18.34
2022-10-03T13:02:23.640Z,18.20
2022-10-03T13:05:10.190Z,18.00
2022-10-03T13:07:52.550Z,17.83
2022-10-03T13:10:31.251Z,17.64
2022-10-03T13:13:15.368Z,17.54
2022-10-03T13:16:08.785Z,17.37
2022-10-03T13:18:54.255Z,17.33
2022-10-03T13:21:46.835Z,17.54
2022-10-03T13:24:32.551Z,17.77
2022-10-03T13:27:23.188Z,18.04
2022-10-03T13:29:55.899Z,18.22
2022-10-03T13:32:32.308Z,18.20
2022-10-03T13:35:39.296Z,18.36
2022-10-03T13:38:31.749Z,18.59
2022-10-03T13:41:11.292Z,18.61
2022-10-03T13:43:43.662Z,18.65
2022-10-03T13:46:16.522Z,18.57
2022-10-03T13:48:55.773Z,18.72
2022-10-03T13:51:34.648Z,18.62
2022-10-03T13:54:07.855Z,18.47
2022-10-03T13:56:48.141Z,18.32
2022-10-03T13:59:37.309Z,18.13
2022-10-03T14:02:23.155Z,17.99
2022-10-03T14:05:08.328Z,17.81
2022-10-03T14:07:48.453Z,17.66
2022-10-03T14:10:44.314Z,17.53
2022-10-03T14:13:23.564Z,17.36
2022-10-03T14:15:55.836Z,17.23
2022-10-03T14:18:38.533Z,17.11
2022-10-03T14:21:28.024Z,17.01
2022-10-03T14:24:04.003Z,16.89
2022-10-03T14:26:40.393Z,16.80
2022-10-03T14:29:22.687Z,16.71
2022-10-03T14:31:58.706Z,16.63
2022-10-03T14:34:46.844Z,16.54
2022-10-03T14:37:25.682Z,16.47
2022-10-03T14:40:09.540Z,16.40
2022-10-03T14:42:58.532Z,16.36
2022-10-03T14:45:31.296Z,16.30
2022-10-03T14:48:07.576Z,16.19
2022-10-03T14:50:40.346Z,16.01
2022-10-03T14:53:15.301Z,15.89
2022-10-03T14:55:47.299Z,15.79
2022-10-03T14:58:21.301Z,15.65
2022-10-03T15:00:55.408Z,15.57
2022-10-03T15:03:28.998Z,15.49
2022-10-03T15:06:03.295Z,15.40
2022-10-03T15:08:37.950Z,15.33
2022-10-03T15:11:07.625Z,15.29
2022-10-03T15:13:42.325Z,15.24
2022-10-03T15:16:17.766Z,15.17
2022-10-03T15:18:53.888Z,15.11
2022-10-03T15:21:22.385Z,15.05
2022-10-03T15:23:56.767Z,15.01
2022-10-03T15:26:28.224Z,14.98
2022-10-03T15:29:00.973Z,14.95
2022-10-03T15:31:35.889Z,14.92
2022-10-03T15:34:07.147Z,14.89
2022-10-03T15:36:39.173Z,14.86
2022-10-03T15:39:16.916Z,14.81
2022-10-03T15:41:54.254Z,14.76
2022-10-03T15:44:28.988Z,14.72
2022-10-03T15:47:01.933Z,14.68
2022-10-03T15:49:33.928Z,14.65
2022-10-03T15:52:12.108Z,14.61
2022-10-03T15:54:40.849Z,14.56
2022-10-03T15:57:17.744Z,14.52
2022-10-03T15:59:47.225Z,14.50
2022-10-03T16:02:21.806Z,14.45
2022-10-03T16:04:57.049Z,14.39
2022-10-03T16:07:34.336Z,14.34
2022-10-03T16:10:14.786Z,14.30
2022-10-03T16:13:02.438Z,14.24
2022-10-03T16:15:43.002Z,14.17
2022-10-03T16:18:50.991Z,14.11
2022-10-03T16:21:31.385Z,14.04
2022-10-03T16:24:02.963Z,14.00
2022-10-03T16:26:35.960Z,13.97
2022-10-03T16:29:14.318Z,13.93
2022-10-03T16:31:50.507Z,13.89
2022-10-03T16:34:22.695Z,13.84
2022-10-03T16:36:51.810Z,13.82
2022-10-03T16:39:24.928Z,13.78
2022-10-03T16:41:55.439Z,13.76
2022-10-03T16:44:32.257Z,13.74
2022-10-03T16:47:04.232Z,13.70
2022-10-03T16:50:00.345Z,13.67
2022-10-03T16:52:33.662Z,13.63
2022-10-03T16:55:05.698Z,13.61
2022-10-03T16:57:42.799Z,13.57
2022-10-03T17:00:18.754Z,13.55
2022-10-03T17:02:48.776Z,13.53
2022-10-03T17:05:19.116Z,13.50
2022-10-03T17:07:50.318Z,13.47
2022-10-03T17:10:28.629Z,13.47
2022-10-03T17:13:03.606Z,13.45
2022-10-03T17:15:36.589Z,13.44
2022-10-03T17:18:17.162Z,13.40
2022-10-03T17:20:49.475Z,13.39
2022-10-03T17:23:30.291Z,13.37
2022-10-03T17:26:04.814Z,13.34
2022-10-03T17:28:39.784Z,13.34
2022-10-03T17:31:23.704Z,13.33
2022-10-03T17:33:56.261Z,13.30
2022-10-03T17:37:06.892Z,13.28
2022-10-03T17:39:43.956Z,13.26
2022-10-03T17:42:29.097Z,13.24
2022-10-03T17:45:04.003Z,13.24
2022-10-03T17:47:42.045Z,13.22
2022-10-03T17:50:15.679Z,13.20
2022-10-03T17:52:50.355Z,13.18
2022-10-03T17:55:22.056Z,13.17
2022-10-03T17:57:53.220Z,13.14
2022-10-03T18:00:24.147Z,13.15
2022-10-03T18:03:01.294Z,13.14
2022-10-03T18:05:32.078Z,13.13
2022-10-03T18:08:08.035Z,13.10
2022-10-03T18:10:38.888Z,13.08
2022-10-03T18:13:16.061Z,13.07
2022-10-03T18:16:03.456Z,13.07
2022-10-03T18:19:01.668Z,13.03
2022-10-03T18:21:39.459Z,13.03
2022-10-03T18:24:49.522Z,13.04
2022-10-03T18:27:40.932Z,13.03
2022-10-03T18:30:17.715Z,13.02
2022-10-03T18:32:46.735Z,13.00
2022-10-03T18:35:20.148Z,12.99
2022-10-03T18:38:00.931Z,12.99
2022-10-03T18:40:32.159Z,12.97
2022-10-03T18:43:01.756Z,12.97
2022-10-03T18:45:33.079Z,12.96
2022-10-03T18:48:09.293Z,12.96
2022-10-03T18:50:52.104Z,12.95
2022-10-03T18:53:27.828Z,12.94
2022-10-03T18:56:00.722Z,12.94
2022-10-03T18:58:34.371Z,12.93
2022-10-03T19:01:06.796Z,12.93
2022-10-03T19:03:39.231Z,12.94
2022-10-03T19:06:19.149Z,12.91
2022-10-03T19:08:51.978Z,12.91
2022-10-03T19:11:26.150Z,12.91
2022-10-03T19:14:05.527Z,12.91
2022-10-03T19:16:45.340Z,12.90
2022-10-03T19:19:25.084Z,12.90
2022-10-03T19:21:55.214Z,12.90
2022-10-03T19:24:53.266Z,12.90
2022-10-03T19:27:20.470Z,12.88
2022-10-03T19:29:52.374Z,12.88
2022-10-03T19:32:27.640Z,12.87
2022-10-03T19:35:02.120Z,12.87
2022-10-03T19:37:44.557Z,12.88
2022-10-03T19:40:16.692Z,12.87
2022-10-03T19:42:49.495Z,12.86
2022-10-03T19:45:20.143Z,12.85
2022-10-03T19:47:52.914Z,12.86
2022-10-03T19:50:25.901Z,12.85
2022-10-03T19:52:53.967Z,12.84
2022-10-03T19:55:24.635Z,12.83
2022-10-03T19:57:55.852Z,12.83
2022-10-03T20:00:31.934Z,12.83
2022-10-03T20:03:13.613Z,12.82
2022-10-03T20:05:47.979Z,12.82
2022-10-03T20:08:26.601Z,12.80
2022-10-03T20:11:17.611Z,12.80
2022-10-03T20:13:48.362Z,12.79
2022-10-03T20:16:20.993Z,12.77
2022-10-03T20:18:52.068Z,12.76
2022-10-03T20:21:25.760Z,12.76
2022-10-03T20:23:54.734Z,12.73
2022-10-03T20:26:33.615Z,12.71
2022-10-03T20:29:16.705Z,12.71
2022-10-03T20:31:46.767Z,12.68
2022-10-03T20:34:17.571Z,12.67
2022-10-03T20:36:50.222Z,12.64
2022-10-03T20:39:22.186Z,12.62
2022-10-03T20:42:03.310Z,12.58
2022-10-03T20:44:59.191Z,12.56
2022-10-03T20:47:41.890Z,12.52
2022-10-03T20:50:19.533Z,12.49
2022-10-03T20:52:52.278Z,12.46
2022-10-03T20:55:23.378Z,12.43
2022-10-03T20:57:59.851Z,12.39
2022-10-03T21:00:29.470Z,12.35
2022-10-03T21:03:05.087Z,12.31
2022-10-03T21:05:37.332Z,12.28
2022-10-03T21:08:13.508Z,12.24
2022-10-03T21:10:47.675Z,12.22
2022-10-03T21:13:20.758Z,12.20
2022-10-03T21:15:51.057Z,12.18
2022-10-03T21:18:24.213Z,12.16
2022-10-03T21:21:04.254Z,12.13
2022-10-03T21:23:37.409Z,12.11
2022-10-03T21:26:09.207Z,12.06
2022-10-03T21:28:39.463Z,12.04
2022-10-03T21:31:34.257Z,12.00
2022-10-03T21:34:09.371Z,11.96
2022-10-03T21:36:51.765Z,11.93
2022-10-03T21:39:29.289Z,11.88
2022-10-03T21:42:06.494Z,11.85
2022-10-03T21:44:48.699Z,11.81
2022-10-03T21:47:32.229Z,11.77
2022-10-03T21:50:04.500Z,11.72
2022-10-03T21:52:45.653Z,11.67
2022-10-03T21:55:51.147Z,11.63
2022-10-03T21:58:35.363Z,11.58
2022-10-03T22:01:14.078Z,11.54
2022-10-03T22:03:51.560Z,11.50
2022-10-03T22:06:25.477Z,11.47
2022-10-03T22:08:54.607Z,11.41
2022-10-03T22:11:40.220Z,11.39
2022-10-03T22:14:18.831Z,11.34
2022-10-03T22:16:56.014Z,11.31
2022-10-03T22:19:34.400Z,11.27
2022-10-03T22:22:14.752Z,11.24
2022-10-03T22:24:56.469Z,11.20
2022-10-03T22:27:31.053Z,11.14
2022-10-03T22:30:05.025Z,11.12
2022-10-03T22:32:41.714Z,11.09
2022-10-03T22:35:31.560Z,11.06
2022-10-03T22:38:01.280Z,11.03
2022-10-03T22:40:30.468Z,11.00
2022-10-03T22:43:03.115Z,10.98
2022-10-03T22:45:34.345Z,10.96
2022-10-03T22:48:07.780Z,10.93
2022-10-03T22:50:41.548Z,10.91
2022-10-03T22:53:15.592Z,10.87
2022-10-03T22:55:45.842Z,10.86
2022-10-03T22:58:15.152Z,10.84
2022-10-03T23:00:46.707Z,10.81
2022-10-03T23:03:20.223Z,10.78
2022-10-03T23:06:27.159Z,10.76
2022-10-03T23:09:06.478Z,10.74
2022-10-03T23:11:37.817Z,10.71
2022-10-03T23:14:13.306Z,10.69
2022-10-03T23:16:52.661Z,10.67
2022-10-03T23:19:30.957Z,10.63
2022-10-03T23:22:01.313Z,10.62
2022-10-03T23:24:36.030Z,10.60
2022-10-03T23:27:31.181Z,10.56
2022-10-03T23:30:51.612Z,10.54
2022-10-03T23:33:35.733Z,10.51
2022-10-03T23:36:06.586Z,10.47
2022-10-03T23:38:59.459Z,10.46
2022-10-03T23:41:44.907Z,10.43
2022-10-03T23:44:49.612Z,10.42
2022-10-03T23:47:20.876Z,10.38
2022-10-03T23:49:51.947Z,10.38
2022-10-03T23:52:24.896Z,10.36
2022-10-03T23:54:56.603Z,10.33
2022-10-03T23:57:31.466Z,10.30
2022-10-03T23:59:59.596Z,10.30
